Taisho Maru — JI3307 — position and weather

sailwx.info

Track history (hours):
 
Tides and Currents Weather Stations Pressure Air Temp Water Temp Dewpoint Dewpoint Depression Visibility Wind Speed Wind Dir Waves Ship Positions

Taisho Maru

Last reported at 2016-Feb-10 01:33 UTC. Time now 2016-Feb-11 08:50 UTC.
Position N 35°06' E 139°43'.

Length 93 m; draft 4.8 m.

Type: Cargo ship. MMSI: 431300084.

Date/timePositionNaut miles runAvg speedWind from/ knotsBaromVisibWave heightAir tempDewpointWater temp
2016-Feb-10 01:33N 35°06' E 139°43'1211.6
2016-Feb-10 00:33N 35°18' E 139°44'4 4.2
2016-Feb-09 23:32N 35°22' E 139°45'0 0.0
2016-Feb-09 22:33N 35°22' E 139°45'0 0.0
2016-Feb-09 21:33N 35°22' E 139°45'0 0.0
2016-Feb-09 20:33N 35°22' E 139°45'0 0.0
2016-Feb-09 19:33N 35°22' E 139°45'0 0.1
2016-Feb-09 18:33N 35°22' E 139°45'0 0.0
2016-Feb-09 17:33N 35°22' E 139°45'0 0.0
2016-Feb-09 16:33N 35°22' E 139°45'0 0.0
2016-Feb-09 15:34N 35°22' E 139°45'1 1.5
2016-Feb-09 14:33N 35°23' E 139°43'6 6.0
2016-Feb-09 13:32N 35°29' E 139°40'0 0.0
2016-Feb-09 12:32N 35°29' E 139°40'0 0.0
2016-Feb-09 11:32N 35°29' E 139°40'0 0.0
2016-Feb-09 10:32N 35°29' E 139°40'0 0.0
2016-Feb-09 09:32N 35°29' E 139°40'0 0.0
2016-Feb-09 08:32N 35°29' E 139°40'0 0.0
2016-Feb-09 07:32N 35°29' E 139°40'0 0.0
2016-Feb-09 06:32N 35°29' E 139°40'0 0.0
2016-Feb-09 05:32N 35°29' E 139°40'0 0.0
2016-Feb-09 04:32N 35°29' E 139°40'0 0.0
2016-Feb-09 03:32N 35°29' E 139°40'2 1.9
2016-Feb-09 02:34N 35°27' E 139°41'1 1.3
2016-Feb-09 01:31N 35°26' E 139°42'0 0.1
2016-Feb-09 00:31N 35°26' E 139°42'0 0.0
2016-Feb-08 23:31N 35°26' E 139°42'0 0.0
2016-Feb-08 22:31N 35°26' E 139°42'0 0.0
2016-Feb-08 21:31N 35°26' E 139°42'0 0.0
2016-Feb-08 20:31N 35°26' E 139°42'0 0.0
2016-Feb-08 19:31N 35°26' E 139°42'0 0.0
2016-Feb-08 18:28N 35°26' E 139°42'0 0.0
2016-Feb-08 17:31N 35°26' E 139°42'0 0.0
2016-Feb-08 16:31N 35°26' E 139°42'0 0.1
2016-Feb-08 15:31N 35°26' E 139°42'0 0.0
2016-Feb-08 14:31N 35°26' E 139°42'0 0.1
2016-Feb-08 13:33N 35°26' E 139°42'0 0.1
2016-Feb-08 12:33N 35°26' E 139°42'8 7.9
2016-Feb-08 11:33N 35°18' E 139°44'1110.6
2016-Feb-08 10:34N 35°08' E 139°45'  
2016-Feb-01 14:29N 34°35' E 134°51'1212.5
2016-Feb-01 13:33N 34°36' E 135°05'1414.0
2016-Feb-01 12:33N 34°38' E 135°22'5 4.6
2016-Feb-01 11:33N 34°40' E 135°27'0 0.0
2016-Feb-01 04:14N 34°40' E 135°27'0 0.0
2016-Feb-01 03:33N 34°40' E 135°27'0 0.0
2016-Feb-01 02:33N 34°40' E 135°27'1 0.8
2016-Feb-01 01:33N 34°40' E 135°26'8 8.3
2016-Feb-01 00:33N 34°35' E 135°18'1211.9
2016-Jan-31 23:34N 34°36' E 135°03'1313.0
2016-Jan-31 22:34N 34°38' E 134°48'7 0.4
2016-Jan-31 04:04N 34°41' E 134°41'814.6
2016-Jan-31 03:32N 34°38' E 134°49'1414.4
2016-Jan-31 02:33N 34°34' E 135°06'  
Track history (hours):
 
Tides and Currents Weather Stations Pressure Air Temp Water Temp Dewpoint Dewpoint Depression Visibility Wind Speed Wind Dir Waves Ship Positions

Taisho Maru

Last reported at 2016-Feb-10 01:33 UTC. Time now 2016-Feb-11 08:50 UTC.
Position N 35°06' E 139°43'.

Length 93 m; draft 4.8 m.

Type: Cargo ship. MMSI: 431300084.

Date/timePositionNaut miles runAvg speedWind from/ knotsBaromVisibWave heightAir tempDewpointWater temp
2016-Feb-10 01:33N 35°06' E 139°43'1211.6
2016-Feb-10 00:33N 35°18' E 139°44'4 4.2
2016-Feb-09 23:32N 35°22' E 139°45'0 0.0
2016-Feb-09 22:33N 35°22' E 139°45'0 0.0
2016-Feb-09 21:33N 35°22' E 139°45'0 0.0
2016-Feb-09 20:33N 35°22' E 139°45'0 0.0
2016-Feb-09 19:33N 35°22' E 139°45'0 0.1
2016-Feb-09 18:33N 35°22' E 139°45'0 0.0
2016-Feb-09 17:33N 35°22' E 139°45'0 0.0
2016-Feb-09 16:33N 35°22' E 139°45'0 0.0
2016-Feb-09 15:34N 35°22' E 139°45'1 1.5
2016-Feb-09 14:33N 35°23' E 139°43'6 6.0
2016-Feb-09 13:32N 35°29' E 139°40'0 0.0
2016-Feb-09 12:32N 35°29' E 139°40'0 0.0
2016-Feb-09 11:32N 35°29' E 139°40'0 0.0
2016-Feb-09 10:32N 35°29' E 139°40'0 0.0
2016-Feb-09 09:32N 35°29' E 139°40'0 0.0
2016-Feb-09 08:32N 35°29' E 139°40'0 0.0
2016-Feb-09 07:32N 35°29' E 139°40'0 0.0
2016-Feb-09 06:32N 35°29' E 139°40'0 0.0
2016-Feb-09 05:32N 35°29' E 139°40'0 0.0
2016-Feb-09 04:32N 35°29' E 139°40'0 0.0
2016-Feb-09 03:32N 35°29' E 139°40'2 1.9
2016-Feb-09 02:34N 35°27' E 139°41'1 1.3
2016-Feb-09 01:31N 35°26' E 139°42'0 0.1
2016-Feb-09 00:31N 35°26' E 139°42'0 0.0
2016-Feb-08 23:31N 35°26' E 139°42'0 0.0
2016-Feb-08 22:31N 35°26' E 139°42'0 0.0
2016-Feb-08 21:31N 35°26' E 139°42'0 0.0
2016-Feb-08 20:31N 35°26' E 139°42'0 0.0
2016-Feb-08 19:31N 35°26' E 139°42'0 0.0
2016-Feb-08 18:28N 35°26' E 139°42'0 0.0
2016-Feb-08 17:31N 35°26' E 139°42'0 0.0
2016-Feb-08 16:31N 35°26' E 139°42'0 0.1
2016-Feb-08 15:31N 35°26' E 139°42'0 0.0
2016-Feb-08 14:31N 35°26' E 139°42'0 0.1
2016-Feb-08 13:33N 35°26' E 139°42'0 0.1
2016-Feb-08 12:33N 35°26' E 139°42'8 7.9
2016-Feb-08 11:33N 35°18' E 139°44'1110.6
2016-Feb-08 10:34N 35°08' E 139°45'  
2016-Feb-01 14:29N 34°35' E 134°51'1212.5
2016-Feb-01 13:33N 34°36' E 135°05'1414.0
2016-Feb-01 12:33N 34°38' E 135°22'5 4.6
2016-Feb-01 11:33N 34°40' E 135°27'0 0.0
2016-Feb-01 04:14N 34°40' E 135°27'0 0.0
2016-Feb-01 03:33N 34°40' E 135°27'0 0.0
2016-Feb-01 02:33N 34°40' E 135°27'1 0.8
2016-Feb-01 01:33N 34°40' E 135°26'8 8.3
2016-Feb-01 00:33N 34°35' E 135°18'1211.9
2016-Jan-31 23:34N 34°36' E 135°03'1313.0
2016-Jan-31 22:34N 34°38' E 134°48'7 0.4
2016-Jan-31 04:04N 34°41' E 134°41'814.6
2016-Jan-31 03:32N 34°38' E 134°49'1414.4
2016-Jan-31 02:33N 34°34' E 135°06'  

Dump ship's entire track history